Overview Statistics Trail Chart Weather Telemetry Raw packets
 

This is the latest recevied weather packets stored in our database for station/object F5TND-14. If no packets are shown the sender has not sent any weather packets the latest 10 day(s).

<< 39 40 41 42 43 44 45 >>
Time Temp. Humidity Pressure Rain* Wind** Luminosity Snow
1787966224 22.78° C 60% 1016.4 hPa - - - -
1787965625 22.78° C 60% 1016.2 hPa - - - -
1787965025 22.78° C 60% 1016.3 hPa - - - -
1787964424 22.78° C 60% 1016.3 hPa - - - -
1787963824 22.78° C 60% 1016.4 hPa - - - -
1787963225 22.78° C 60% 1016.4 hPa - - - -
1787962624 22.78° C 61% 1016.4 hPa - - - -
1787962024 22.78° C 61% 1016.4 hPa - - - -
1787961423 22.78° C 60% 1016.5 hPa - - - -
1787960824 23.33° C 61% 1016.5 hPa - - - -
1787960223 22.78° C 62% 1016.7 hPa - - - -
1787959623 22.78° C 62% 1016.6 hPa - - - -
1787959023 22.78° C 62% 1016.6 hPa - - - -
1787958423 22.78° C 63% 1016.6 hPa - - - -
1787957823 22.78° C 64% 1016.7 hPa - - - -
1787957223 22.78° C 67% 1016.5 hPa - - - -
1787956623 21.67° C 72% 1016.5 hPa - - - -
1787956023 21.67° C 72% 1016.6 hPa - - - -
1787955423 21.11° C 72% 1016.6 hPa - - - -
1787954223 23.89° C 56% 1016.7 hPa - - - -
1787953624 23.89° C 57% 1016.7 hPa - - - -
1787953351 23.89° C 57% 1016.3 hPa - - - -
1787952743 23.33° C 58% 1016.4 hPa - - - -
1787952146 22.22° C 62% 1016.4 hPa - - - -
1787951552 22.22° C 63% 1016.6 hPa - - - -

* Rain since midnight (hover to see other rain measurements)
** Current wind speed in m/s (hover to see current wind gust speed)